createdAt,value
2022-10-05T00:01:58.685Z,3.90
2022-10-05T00:04:29.146Z,3.70
2022-10-05T00:07:02.120Z,3.55
2022-10-05T00:09:35.008Z,3.70
2022-10-05T00:12:14.328Z,3.42
2022-10-05T00:14:42.958Z,3.50
2022-10-05T00:17:17.955Z,2.90
2022-10-05T00:19:52.352Z,3.47
2022-10-05T00:22:22.599Z,3.42
2022-10-05T00:24:57.905Z,3.28
2022-10-05T00:27:27.691Z,3.33
2022-10-05T00:30:00.277Z,3.83
2022-10-05T00:32:28.724Z,4.03
2022-10-05T00:34:58.640Z,4.45
2022-10-05T00:37:26.752Z,4.15
2022-10-05T00:39:56.225Z,4.40
2022-10-05T00:42:38.316Z,4.43
2022-10-05T00:45:12.600Z,5.30
2022-10-05T00:47:50.659Z,4.32
2022-10-05T00:50:37.323Z,3.95
2022-10-05T00:53:12.804Z,4.18
2022-10-05T00:55:55.546Z,5.18
2022-10-05T00:58:32.042Z,5.03
2022-10-05T01:01:09.187Z,4.75
2022-10-05T01:03:50.957Z,4.15
2022-10-05T01:06:26.570Z,4.07
2022-10-05T01:09:03.941Z,4.47
2022-10-05T01:11:39.724Z,3.72
2022-10-05T01:14:16.977Z,3.67
2022-10-05T01:16:53.227Z,3.45
2022-10-05T01:20:01.789Z,3.13
2022-10-05T01:22:44.161Z,3.78
2022-10-05T01:25:23.938Z,4.30
2022-10-05T01:28:04.160Z,4.00
2022-10-05T01:30:39.135Z,5.00
2022-10-05T01:33:16.862Z,4.85
2022-10-05T01:35:55.190Z,4.43
2022-10-05T01:38:38.083Z,4.40
2022-10-05T01:41:22.267Z,4.65
2022-10-05T01:43:55.194Z,4.53
2022-10-05T01:46:30.318Z,4.30
2022-10-05T01:49:29.724Z,5.03
2022-10-05T01:52:08.357Z,4.63
2022-10-05T01:54:47.106Z,4.20
2022-10-05T01:57:27.438Z,4.28
2022-10-05T02:00:07.607Z,4.18
2022-10-05T02:02:39.656Z,4.05
2022-10-05T02:05:12.242Z,4.70
2022-10-05T02:07:44.964Z,5.05
2022-10-05T02:10:22.139Z,4.78
2022-10-05T02:12:55.668Z,5.60
2022-10-05T02:15:28.459Z,5.95
2022-10-05T02:18:03.405Z,6.00
2022-10-05T02:20:35.667Z,6.10
2022-10-05T02:23:08.974Z,5.88
2022-10-05T02:28:12.667Z,5.15
2022-10-05T02:30:48.235Z,6.10
2022-10-05T02:33:22.668Z,5.60
2022-10-05T02:35:50.802Z,5.50
2022-10-05T02:38:27.630Z,6.00
2022-10-05T02:41:04.388Z,5.22
2022-10-05T02:43:43.851Z,4.18
2022-10-05T02:46:23.879Z,4.40
2022-10-05T02:49:11.652Z,4.82
2022-10-05T02:51:47.014Z,4.25
2022-10-05T02:54:22.940Z,4.05
2022-10-05T02:56:58.964Z,4.50
2022-10-05T02:59:34.499Z,4.20
2022-10-05T03:02:13.420Z,4.38
2022-10-05T03:04:49.770Z,5.05
2022-10-05T03:07:24.196Z,5.25
2022-10-05T03:10:01.612Z,5.25
2022-10-05T03:12:45.446Z,5.15
2022-10-05T03:15:28.872Z,5.28
2022-10-05T03:18:07.191Z,5.28
2022-10-05T03:20:42.327Z,5.80
2022-10-05T03:23:20.912Z,5.22
2022-10-05T03:26:07.177Z,5.30
2022-10-05T03:28:44.680Z,5.45
2022-10-05T03:31:21.587Z,4.88
2022-10-05T03:33:58.197Z,6.25
2022-10-05T03:36:34.076Z,5.82
2022-10-05T03:39:10.857Z,5.90
2022-10-05T03:41:48.401Z,6.28
2022-10-05T03:44:36.193Z,6.35
2022-10-05T03:47:13.555Z,7.30
2022-10-05T03:49:56.316Z,7.47
2022-10-05T03:52:29.545Z,7.43
2022-10-05T03:55:02.639Z,6.97
2022-10-05T03:57:34.370Z,7.03
2022-10-05T04:00:06.951Z,6.43
2022-10-05T04:02:38.080Z,6.32
2022-10-05T04:05:17.100Z,6.38
2022-10-05T04:07:48.647Z,14.20
2022-10-05T04:10:22.280Z,6.85
2022-10-05T04:12:56.069Z,5.30
2022-10-05T04:15:32.766Z,4.97
2022-10-05T04:18:06.292Z,4.65
2022-10-05T04:20:43.335Z,4.68
2022-10-05T04:23:19.544Z,4.97
2022-10-05T04:25:50.362Z,5.05
2022-10-05T04:28:31.078Z,6.18
2022-10-05T04:31:03.823Z,6.38
2022-10-05T04:33:33.564Z,7.00
2022-10-05T04:36:24.674Z,6.63
2022-10-05T04:39:06.825Z,7.18
2022-10-05T04:41:50.061Z,9.43
2022-10-05T04:44:34.619Z,10.27
2022-10-05T04:47:20.367Z,10.98
2022-10-05T04:50:06.235Z,12.95
2022-10-05T04:52:44.360Z,12.13
2022-10-05T04:55:22.563Z,11.25
2022-10-05T04:57:56.234Z,11.93
2022-10-05T05:00:26.644Z,14.20
2022-10-05T05:03:28.411Z,20.08
2022-10-05T05:06:16.893Z,14.55
2022-10-05T05:09:04.300Z,19.70
2022-10-05T05:11:42.862Z,16.17
2022-10-05T05:14:49.886Z,13.75
2022-10-05T05:17:32.197Z,12.52
2022-10-05T05:20:13.711Z,31.50
2022-10-05T05:22:48.805Z,18.55
2022-10-05T05:25:40.201Z,14.18
2022-10-05T05:28:24.395Z,17.52
2022-10-05T05:30:59.591Z,13.30
2022-10-05T05:33:37.119Z,40.75
2022-10-05T05:36:25.274Z,30.20
2022-10-05T05:39:02.741Z,32.38
2022-10-05T05:41:38.708Z,28.02
2022-10-05T05:44:20.574Z,32.08
2022-10-05T05:47:05.415Z,20.58
2022-10-05T05:49:49.107Z,17.60
2022-10-05T05:52:23.709Z,19.38
2022-10-05T05:54:58.066Z,12.85
2022-10-05T05:57:31.022Z,16.52
2022-10-05T06:00:06.271Z,13.25
2022-10-05T06:02:42.961Z,10.38
2022-10-05T06:05:28.571Z,11.25
2022-10-05T06:07:59.072Z,11.10
2022-10-05T06:10:33.763Z,11.82
2022-10-05T06:13:09.415Z,11.90
2022-10-05T06:15:42.901Z,9.88
2022-10-05T06:18:13.659Z,10.70
2022-10-05T06:20:45.503Z,11.35
2022-10-05T06:23:18.546Z,11.13
2022-10-05T06:26:07.074Z,10.90
2022-10-05T06:28:40.208Z,10.80
2022-10-05T06:31:29.661Z,11.90
2022-10-05T06:34:09.690Z,12.00
2022-10-05T06:36:45.547Z,13.45
2022-10-05T06:39:37.358Z,11.90
2022-10-05T06:42:28.345Z,11.65
2022-10-05T06:45:05.308Z,11.95
2022-10-05T06:47:39.206Z,13.15
2022-10-05T06:50:15.614Z,12.35
2022-10-05T06:53:04.046Z,12.48
2022-10-05T06:55:39.157Z,12.38
2022-10-05T06:58:22.039Z,12.25
2022-10-05T07:00:55.905Z,13.07
2022-10-05T07:03:28.922Z,12.23
2022-10-05T07:06:14.572Z,11.77
2022-10-05T07:08:55.465Z,11.40
2022-10-05T07:11:36.665Z,11.50
2022-10-05T07:14:16.244Z,12.45
2022-10-05T07:17:00.983Z,12.90
2022-10-05T07:19:38.048Z,12.27
2022-10-05T07:22:22.315Z,12.60
2022-10-05T07:25:02.040Z,12.95
2022-10-05T07:27:35.042Z,13.60
2022-10-05T07:30:06.801Z,12.40
2022-10-05T07:32:40.807Z,13.10
2022-10-05T07:35:32.898Z,13.45
2022-10-05T07:38:06.162Z,13.38
2022-10-05T07:40:40.159Z,13.23
2022-10-05T07:43:20.682Z,13.98
2022-10-05T07:45:53.780Z,14.70
2022-10-05T07:48:26.743Z,15.38
2022-10-05T07:51:00.995Z,14.23
2022-10-05T07:53:35.937Z,14.50
2022-10-05T07:56:10.788Z,20.15
2022-10-05T07:58:44.338Z,22.52
2022-10-05T08:01:19.331Z,19.50
2022-10-05T08:03:55.368Z,22.63
2022-10-05T08:06:35.932Z,20.70
2022-10-05T08:09:12.353Z,32.85
2022-10-05T08:11:50.776Z,36.05
2022-10-05T08:14:25.540Z,31.95
2022-10-05T08:16:57.695Z,27.30
2022-10-05T08:19:34.891Z,24.45
2022-10-05T08:22:09.772Z,17.98
2022-10-05T08:24:48.756Z,22.60
2022-10-05T08:27:24.715Z,28.38
2022-10-05T08:29:59.749Z,18.48
2022-10-05T08:32:31.833Z,22.70
2022-10-05T08:35:05.664Z,18.25
2022-10-05T08:37:37.015Z,19.35
2022-10-05T08:40:46.395Z,18.80
2022-10-05T08:43:35.569Z,19.55
2022-10-05T08:46:36.924Z,16.95
2022-10-05T08:49:22.823Z,17.98
2022-10-05T08:52:29.207Z,16.73
2022-10-05T08:55:29.453Z,14.80
2022-10-05T08:58:27.619Z,14.40
2022-10-05T09:01:03.320Z,13.43
2022-10-05T09:04:04.918Z,15.13
2022-10-05T09:06:53.172Z,15.10
2022-10-05T09:10:15.076Z,14.98
2022-10-05T09:13:09.831Z,13.60
2022-10-05T09:16:05.449Z,13.85
2022-10-05T09:19:06.292Z,12.73
2022-10-05T09:21:43.258Z,12.60
2022-10-05T09:24:27.167Z,13.63
2022-10-05T09:27:03.361Z,13.82
2022-10-05T09:30:11.490Z,13.50
2022-10-05T09:33:13.806Z,13.75
2022-10-05T09:36:13.599Z,14.40
2022-10-05T09:39:09.643Z,13.82
2022-10-05T09:42:14.514Z,12.55
2022-10-05T09:45:21.723Z,13.00
2022-10-05T09:48:13.090Z,12.75
2022-10-05T09:51:19.670Z,12.25
2022-10-05T09:54:23.233Z,12.25
2022-10-05T09:57:15.783Z,12.75
2022-10-05T10:00:09.565Z,12.07
2022-10-05T10:03:21.264Z,12.27
2022-10-05T10:06:16.606Z,10.77
2022-10-05T10:09:19.008Z,10.45
2022-10-05T10:12:04.495Z,10.90
2022-10-05T10:15:10.780Z,10.20
2022-10-05T10:17:58.508Z,10.43
2022-10-05T10:20:44.206Z,10.40
2022-10-05T10:23:27.980Z,9.38
2022-10-05T10:26:24.223Z,10.13
2022-10-05T10:29:18.139Z,9.57
2022-10-05T10:31:58.103Z,10.10
2022-10-05T10:34:51.903Z,9.68
2022-10-05T10:38:02.610Z,8.38
2022-10-05T10:40:39.567Z,9.70
2022-10-05T10:43:41.133Z,8.77
2022-10-05T10:46:19.887Z,8.60
2022-10-05T10:48:57.397Z,8.55
2022-10-05T10:52:07.385Z,8.82
2022-10-05T10:55:04.911Z,7.10
2022-10-05T10:57:48.891Z,7.22
2022-10-05T11:00:48.265Z,7.13
2022-10-05T11:03:46.895Z,8.05
2022-10-05T11:06:43.019Z,7.53
2022-10-05T11:09:45.582Z,6.97
2022-10-05T11:12:39.841Z,6.55
2022-10-05T11:15:37.867Z,7.47
2022-10-05T11:18:20.395Z,7.15
2022-10-05T11:21:24.009Z,6.47
2022-10-05T11:27:18.653Z,6.55
2022-10-05T11:30:20.997Z,6.25
2022-10-05T11:33:29.554Z,6.72
2022-10-05T11:36:20.413Z,6.75
2022-10-05T11:39:17.504Z,7.28
2022-10-05T11:42:18.276Z,6.85
2022-10-05T11:45:26.561Z,6.68
2022-10-05T11:48:48.093Z,6.35
2022-10-05T11:51:41.257Z,5.65
2022-10-05T11:54:26.436Z,5.20
2022-10-05T11:57:00.171Z,4.22
2022-10-05T11:59:35.805Z,4.07
2022-10-05T12:02:22.293Z,4.18
2022-10-05T12:04:59.479Z,4.30
2022-10-05T12:07:35.615Z,3.97
2022-10-05T12:10:22.782Z,3.72
2022-10-05T12:13:19.068Z,3.75
2022-10-05T12:15:54.744Z,3.78
2022-10-05T12:18:50.001Z,3.85
2022-10-05T12:21:27.717Z,3.70
2022-10-05T12:24:01.439Z,3.97
2022-10-05T12:26:35.506Z,3.60
2022-10-05T12:29:13.200Z,3.25
2022-10-05T12:31:51.309Z,3.45
2022-10-05T12:34:29.180Z,3.05
2022-10-05T12:37:04.554Z,3.22
2022-10-05T12:39:40.416Z,3.42
2022-10-05T12:42:21.343Z,3.55
2022-10-05T12:45:04.955Z,3.85
2022-10-05T12:47:43.122Z,3.97
2022-10-05T12:50:22.104Z,4.70
2022-10-05T12:53:07.341Z,3.92
2022-10-05T12:55:43.569Z,4.20
2022-10-05T12:58:22.803Z,3.00
2022-10-05T13:00:57.370Z,3.33
2022-10-05T13:03:29.196Z,3.63
2022-10-05T13:06:11.006Z,3.17
2022-10-05T13:08:48.129Z,3.15
2022-10-05T13:11:22.504Z,3.75
2022-10-05T13:14:07.394Z,4.32
2022-10-05T13:16:40.771Z,3.45
2022-10-05T13:19:31.678Z,4.10
2022-10-05T13:22:23.925Z,3.58
2022-10-05T13:25:01.574Z,3.63
2022-10-05T13:27:32.932Z,3.30
2022-10-05T13:30:05.848Z,3.67
2022-10-05T13:32:37.445Z,3.22
2022-10-05T13:35:30.038Z,3.30
2022-10-05T13:38:08.211Z,2.90
2022-10-05T13:40:46.325Z,2.58
2022-10-05T13:43:24.172Z,3.00
2022-10-05T13:45:57.146Z,2.70
2022-10-05T13:48:46.446Z,2.58
2022-10-05T13:51:19.790Z,2.72
2022-10-05T13:53:56.042Z,2.50
2022-10-05T13:56:30.497Z,2.17
2022-10-05T13:59:12.766Z,2.50
2022-10-05T14:01:47.570Z,2.40
2022-10-05T14:04:19.777Z,1.85
2022-10-05T14:06:49.264Z,2.38
2022-10-05T14:09:31.385Z,2.00
2022-10-05T14:12:15.669Z,2.55
2022-10-05T14:14:49.731Z,2.08
2022-10-05T14:17:32.840Z,2.28
2022-10-05T14:20:04.186Z,1.90
2022-10-05T14:22:42.728Z,1.85
2022-10-05T14:25:18.294Z,1.75
2022-10-05T14:28:04.544Z,1.70
2022-10-05T14:30:33.772Z,1.30
2022-10-05T14:33:15.594Z,1.40
2022-10-05T14:35:50.164Z,1.40
2022-10-05T14:38:21.966Z,1.20
2022-10-05T14:41:13.408Z,1.20
2022-10-05T14:43:51.844Z,1.02
2022-10-05T14:46:28.290Z,1.27
2022-10-05T14:49:22.754Z,1.20
2022-10-05T14:51:51.714Z,1.05
2022-10-05T14:54:35.249Z,1.25
2022-10-05T14:57:18.082Z,1.40
2022-10-05T15:00:03.930Z,1.20
2022-10-05T15:03:06.173Z,1.10
2022-10-05T15:05:39.272Z,1.10
2022-10-05T15:08:24.302Z,1.10
2022-10-05T15:11:01.571Z,1.23
2022-10-05T15:13:33.960Z,2.10
2022-10-05T15:16:06.943Z,1.48
2022-10-05T15:21:26.406Z,1.40
2022-10-05T15:23:58.510Z,2.05
2022-10-05T15:26:36.962Z,2.37
2022-10-05T15:29:19.584Z,1.67
2022-10-05T15:31:59.340Z,1.33
2022-10-05T15:34:33.719Z,1.40
2022-10-05T15:37:12.471Z,1.20
2022-10-05T15:39:48.753Z,1.05
2022-10-05T15:42:20.771Z,1.30
2022-10-05T15:45:05.408Z,1.50
2022-10-05T15:47:48.187Z,1.45
2022-10-05T15:50:23.533Z,1.25
2022-10-05T15:52:57.332Z,1.10
2022-10-05T15:55:36.513Z,1.38
2022-10-05T15:58:31.508Z,1.27
2022-10-05T16:01:11.391Z,1.23
2022-10-05T16:03:50.209Z,1.40
2022-10-05T16:06:47.132Z,1.25
2022-10-05T16:09:34.692Z,1.30
2022-10-05T16:15:07.139Z,1.40
2022-10-05T16:17:55.997Z,1.90
2022-10-05T16:20:36.851Z,1.83
2022-10-05T16:23:11.702Z,1.60
2022-10-05T16:25:53.526Z,1.73
2022-10-05T16:33:06.487Z,2.75
2022-10-05T16:35:46.782Z,2.10
2022-10-05T16:38:26.997Z,1.67
2022-10-05T16:41:20.936Z,1.80
2022-10-05T16:44:04.968Z,1.77
2022-10-05T16:46:40.756Z,1.95
2022-10-05T16:49:58.715Z,2.22
2022-10-05T16:52:29.199Z,1.67
2022-10-05T16:55:02.438Z,2.05
2022-10-05T17:00:21.963Z,1.83
2022-10-05T17:03:08.679Z,2.08
2022-10-05T17:05:59.040Z,1.80
2022-10-05T17:09:02.601Z,2.13
2022-10-05T17:11:43.677Z,2.15
2022-10-05T17:14:43.003Z,2.22
2022-10-05T17:17:41.287Z,2.03
2022-10-05T17:20:41.617Z,2.45
2022-10-05T17:23:30.291Z,2.58
2022-10-05T17:26:05.481Z,2.25
2022-10-05T17:28:58.420Z,2.60
2022-10-05T17:31:26.870Z,18.40
2022-10-05T17:34:29.142Z,4.63
2022-10-05T17:36:59.800Z,5.82
2022-10-05T17:39:47.079Z,3.20
2022-10-05T17:42:46.429Z,3.08
2022-10-05T17:45:50.744Z,2.58
2022-10-05T17:48:39.439Z,2.33
2022-10-05T17:51:57.720Z,2.60
2022-10-05T17:54:47.162Z,2.22
2022-10-05T17:57:25.502Z,2.45
2022-10-05T18:00:02.435Z,2.55
2022-10-05T18:02:43.880Z,3.47
2022-10-05T18:05:31.399Z,2.70
2022-10-05T18:08:31.768Z,2.60
2022-10-05T18:11:17.127Z,2.88
2022-10-05T18:13:50.099Z,6.07
2022-10-05T18:16:52.008Z,3.67
2022-10-05T18:19:22.804Z,2.85
2022-10-05T18:22:27.745Z,2.03
2022-10-05T18:25:05.821Z,2.47
2022-10-05T18:28:05.503Z,2.40
2022-10-05T18:30:44.717Z,2.05
2022-10-05T18:33:49.325Z,2.00
2022-10-05T18:36:39.933Z,2.17
2022-10-05T18:39:27.628Z,2.15
2022-10-05T18:42:11.711Z,1.98
2022-10-05T18:44:43.151Z,1.95
2022-10-05T18:47:19.250Z,2.10
2022-10-05T18:50:06.112Z,2.58
2022-10-05T18:52:49.316Z,2.22
2022-10-05T18:56:11.554Z,1.88
2022-10-05T18:58:54.588Z,2.35
2022-10-05T19:01:49.286Z,2.40
2022-10-05T19:04:27.292Z,1.60
2022-10-05T19:07:06.155Z,1.60
2022-10-05T19:09:56.392Z,1.63
2022-10-05T19:12:41.375Z,1.60
2022-10-05T19:15:20.368Z,1.85
2022-10-05T19:18:18.596Z,1.85
2022-10-05T19:20:55.183Z,1.55
2022-10-05T19:23:39.961Z,1.52
2022-10-05T19:26:15.358Z,1.70
2022-10-05T19:28:57.176Z,1.60
2022-10-05T19:31:34.899Z,1.58
2022-10-05T19:34:24.157Z,3.05
2022-10-05T19:37:00.322Z,2.53
2022-10-05T19:39:37.975Z,2.20
2022-10-05T19:42:44.626Z,2.28
2022-10-05T19:45:22.844Z,2.10
2022-10-05T19:48:18.024Z,1.80
2022-10-05T19:50:55.192Z,3.08
2022-10-05T19:53:29.375Z,2.20
2022-10-05T19:56:10.547Z,1.70
2022-10-05T19:58:41.035Z,1.92
2022-10-05T20:01:11.313Z,2.08
2022-10-05T20:03:41.058Z,2.35
2022-10-05T20:06:11.543Z,1.65
2022-10-05T20:08:41.867Z,1.88
2022-10-05T20:11:13.196Z,2.83
2022-10-05T20:13:42.988Z,2.55
2022-10-05T20:16:45.642Z,1.90
2022-10-05T20:19:49.936Z,2.10
2022-10-05T20:24:54.109Z,2.45
2022-10-05T20:27:45.259Z,3.00
2022-10-05T20:30:15.976Z,3.95
2022-10-05T20:32:45.591Z,2.60
2022-10-05T20:35:16.495Z,1.73
2022-10-05T20:37:44.775Z,1.60
2022-10-05T20:40:14.874Z,1.48
2022-10-05T20:42:42.967Z,1.40
2022-10-05T20:45:12.374Z,1.88
2022-10-05T20:47:40.853Z,1.95
2022-10-05T20:50:10.883Z,1.48
2022-10-05T20:52:40.494Z,1.70
2022-10-05T20:55:11.420Z,1.73
2022-10-05T20:57:42.184Z,1.88
2022-10-05T21:00:12.296Z,1.77
2022-10-05T21:02:40.733Z,1.77
2022-10-05T21:05:09.855Z,1.67
2022-10-05T21:07:38.020Z,1.70
2022-10-05T21:10:08.491Z,2.20
2022-10-05T21:12:36.619Z,1.80
2022-10-05T21:15:05.724Z,1.95
2022-10-05T21:17:35.186Z,1.90
2022-10-05T21:20:03.470Z,1.60
2022-10-05T21:22:31.790Z,1.85
2022-10-05T21:25:00.251Z,1.70
2022-10-05T21:27:31.079Z,1.70
2022-10-05T21:29:59.164Z,1.70
2022-10-05T21:32:27.248Z,1.88
2022-10-05T21:34:55.285Z,1.88
2022-10-05T21:37:23.345Z,1.90
2022-10-05T21:40:08.516Z,1.52
2022-10-05T21:42:38.159Z,1.90
2022-10-05T21:45:07.278Z,1.73
2022-10-05T21:47:36.072Z,1.73
2022-10-05T21:50:05.264Z,2.00
2022-10-05T21:52:34.696Z,2.10
2022-10-05T21:55:03.729Z,1.80
2022-10-05T21:57:31.988Z,1.70
2022-10-05T22:00:01.761Z,2.03
2022-10-05T22:02:29.843Z,1.60
2022-10-05T22:04:58.396Z,2.00
2022-10-05T22:07:26.439Z,2.00
2022-10-05T22:09:54.490Z,1.98
2022-10-05T22:12:23.591Z,1.67
2022-10-05T22:14:51.704Z,1.90
2022-10-05T22:17:24.950Z,1.80
2022-10-05T22:19:53.106Z,2.03
2022-10-05T22:22:21.291Z,1.70
2022-10-05T22:24:49.432Z,1.70
2022-10-05T22:27:18.022Z,1.70
2022-10-05T22:29:46.083Z,1.60
2022-10-05T22:32:14.188Z,1.70
2022-10-05T22:34:43.664Z,1.67
2022-10-05T22:37:13.507Z,1.45
2022-10-05T22:39:42.050Z,1.30
2022-10-05T22:42:10.787Z,2.03
2022-10-05T22:44:39.051Z,1.40
2022-10-05T22:47:07.435Z,1.67
2022-10-05T22:49:35.540Z,1.50
2022-10-05T22:52:05.040Z,1.60
2022-10-05T22:54:37.107Z,1.30
2022-10-05T22:57:05.469Z,1.60
2022-10-05T22:59:33.570Z,1.52
2022-10-05T23:02:01.892Z,1.60
2022-10-05T23:04:30.142Z,1.48
2022-10-05T23:06:58.239Z,1.48
2022-10-05T23:09:27.814Z,1.60
2022-10-05T23:11:55.951Z,1.27
2022-10-05T23:14:50.761Z,1.73
2022-10-05T23:17:21.366Z,1.40
2022-10-05T23:19:49.817Z,1.38
2022-10-05T23:22:17.910Z,1.58
2022-10-05T23:24:58.234Z,1.25
2022-10-05T23:27:26.322Z,1.42
2022-10-05T23:29:54.442Z,1.48
2022-10-05T23:32:22.502Z,1.60
2022-10-05T23:34:50.540Z,1.45
2022-10-05T23:37:22.567Z,1.60
2022-10-05T23:39:51.992Z,2.03
2022-10-05T23:42:20.298Z,1.40
2022-10-05T23:44:48.436Z,1.67
2022-10-05T23:47:16.514Z,1.48
2022-10-05T23:49:44.618Z,1.50
2022-10-05T23:52:13.969Z,1.70
2022-10-05T23:54:42.096Z,1.50
2022-10-05T23:57:11.546Z,1.75
2022-10-05T23:59:39.582Z,1.92
